createdAt,value
2018-11-03T00:01:01.620Z,64.30
2018-11-03T00:03:29.876Z,64.60
2018-11-03T00:05:58.095Z,64.20
2018-11-03T00:08:26.336Z,66.10
2018-11-03T00:10:54.591Z,66.80
2018-11-03T00:13:23.636Z,64.60
2018-11-03T00:15:51.900Z,64.60
2018-11-03T00:18:20.141Z,65.70
2018-11-03T00:20:48.411Z,63.10
2018-11-03T00:23:17.431Z,63.20
2018-11-03T00:25:45.657Z,63.30
2018-11-03T00:28:13.863Z,65.10
2018-11-03T00:30:42.134Z,75.20
2018-11-03T00:33:11.139Z,64.80
2018-11-03T00:35:39.427Z,64.70
2018-11-03T00:38:07.618Z,64.80
2018-11-03T00:40:36.007Z,67.40
2018-11-03T00:43:04.145Z,66.50
2018-11-03T00:45:33.163Z,65.60
2018-11-03T00:48:01.373Z,65.90
2018-11-03T00:50:29.599Z,70.50
2018-11-03T00:52:57.850Z,65.60
2018-11-03T00:55:26.853Z,65.50
2018-11-03T00:57:55.866Z,64.90
2018-11-03T01:00:24.133Z,65.40
2018-11-03T01:02:53.133Z,67.20
2018-11-03T01:05:21.361Z,67.40
2018-11-03T01:07:49.623Z,66.30
2018-11-03T01:10:17.832Z,67.20
2018-11-03T01:12:46.810Z,70.40
2018-11-03T01:15:15.048Z,71.20
2018-11-03T01:17:43.255Z,67.20
2018-11-03T01:20:11.487Z,68.30
2018-11-03T01:22:39.723Z,69.90
2018-11-03T01:25:07.952Z,66.70
2018-11-03T01:27:36.203Z,70.20
2018-11-03T01:30:04.423Z,67.80
2018-11-03T01:32:32.747Z,67.80
2018-11-03T01:35:00.937Z,76.60
2018-11-03T01:37:29.141Z,78.20
2018-11-03T01:39:57.408Z,74.60
2018-11-03T01:42:25.663Z,75.40
2018-11-03T01:44:54.629Z,69.40
2018-11-03T01:47:22.854Z,69.90
2018-11-03T01:49:51.062Z,70.00
2018-11-03T01:52:19.304Z,68.80
2018-11-03T01:54:47.559Z,66.00
2018-11-03T01:57:15.812Z,67.70
2018-11-03T01:59:44.074Z,67.60
2018-11-03T02:02:12.269Z,69.20
2018-11-03T02:04:41.297Z,68.30
2018-11-03T02:07:09.560Z,68.70
2018-11-03T02:09:38.535Z,68.30
2018-11-03T02:12:07.570Z,71.80
2018-11-03T02:14:35.784Z,71.40
2018-11-03T02:17:04.038Z,72.70
2018-11-03T02:19:32.293Z,68.90
2018-11-03T02:22:00.477Z,69.20
2018-11-03T02:24:28.689Z,70.00
2018-11-03T02:26:56.914Z,70.30
2018-11-03T02:29:25.122Z,70.50
2018-11-03T02:31:53.347Z,73.80
2018-11-03T02:34:22.357Z,72.10
2018-11-03T02:36:51.380Z,73.00
2018-11-03T02:39:19.607Z,73.10
2018-11-03T02:41:47.866Z,69.80
2018-11-03T02:44:16.065Z,74.20
2018-11-03T02:46:45.094Z,67.20
2018-11-03T02:49:13.284Z,67.40
2018-11-03T02:51:41.552Z,68.50
2018-11-03T02:54:09.792Z,67.70
2018-11-03T02:56:38.775Z,66.30
2018-11-03T02:59:07.804Z,68.50
2018-11-03T03:01:36.034Z,68.40
2018-11-03T03:04:04.299Z,65.10
2018-11-03T03:06:32.559Z,67.30
2018-11-03T03:09:00.801Z,67.00
2018-11-03T03:11:29.065Z,67.20
2018-11-03T03:13:58.024Z,68.20
2018-11-03T03:16:27.799Z,69.90
2018-11-03T03:18:56.059Z,70.00
2018-11-03T03:21:25.078Z,71.10
2018-11-03T03:23:53.285Z,71.10
2018-11-03T03:26:21.528Z,68.90
2018-11-03T03:28:49.829Z,70.20
2018-11-03T03:31:18.770Z,68.60
2018-11-03T03:33:46.967Z,69.10
2018-11-03T03:36:15.233Z,67.50
2018-11-03T03:38:43.448Z,68.10
2018-11-03T03:41:11.751Z,68.50
2018-11-03T03:43:39.947Z,68.80
2018-11-03T03:46:08.979Z,69.90
2018-11-03T03:48:37.191Z,69.90
2018-11-03T03:51:05.453Z,69.80
2018-11-03T03:53:33.662Z,68.10
2018-11-03T03:56:02.658Z,67.70
2018-11-03T03:58:31.629Z,76.70
2018-11-03T04:00:59.899Z,76.50
2018-11-03T04:03:28.185Z,72.00
2018-11-03T04:05:56.422Z,68.10
2018-11-03T04:08:24.667Z,67.90
2018-11-03T04:10:53.678Z,68.30
2018-11-03T04:13:21.919Z,68.50
2018-11-03T04:15:50.148Z,67.60
2018-11-03T04:18:18.348Z,69.20
2018-11-03T04:20:46.561Z,68.30
2018-11-03T04:23:15.531Z,69.20
2018-11-03T04:25:43.807Z,69.20
2018-11-03T04:28:12.054Z,68.60
2018-11-03T04:30:40.268Z,67.50
2018-11-03T04:33:08.722Z,66.20
2018-11-03T04:35:36.927Z,66.90
2018-11-03T04:38:05.942Z,67.10
2018-11-03T04:40:34.923Z,67.20
2018-11-03T04:43:03.943Z,68.40
2018-11-03T04:45:32.249Z,68.70
2018-11-03T04:48:00.383Z,67.30
2018-11-03T04:50:28.655Z,66.70
2018-11-03T04:52:57.668Z,67.40
2018-11-03T04:55:25.958Z,67.50
2018-11-03T04:57:54.153Z,66.00
2018-11-03T05:00:22.373Z,67.00
2018-11-03T05:02:51.343Z,73.50
2018-11-03T05:05:19.566Z,73.00
2018-11-03T05:07:47.824Z,67.30
2018-11-03T05:10:16.934Z,67.40
2018-11-03T05:12:45.076Z,67.50
2018-11-03T05:15:13.347Z,68.60
2018-11-03T05:17:41.609Z,67.20
2018-11-03T05:20:09.801Z,67.40
2018-11-03T05:22:38.030Z,67.70
2018-11-03T05:25:06.326Z,66.80
2018-11-03T05:27:34.563Z,67.00
2018-11-03T05:30:02.768Z,66.90
2018-11-03T05:32:30.985Z,67.50
2018-11-03T05:34:59.205Z,67.10
2018-11-03T05:37:27.462Z,67.40
2018-11-03T05:39:56.516Z,67.60
2018-11-03T05:42:24.754Z,67.70
2018-11-03T05:44:52.956Z,67.40
2018-11-03T05:47:21.174Z,66.70
2018-11-03T05:49:50.184Z,66.60
2018-11-03T05:52:19.172Z,68.20
2018-11-03T05:54:48.189Z,68.50
2018-11-03T05:57:16.437Z,69.10
2018-11-03T05:59:45.470Z,67.20
2018-11-03T06:02:13.674Z,67.20
2018-11-03T06:04:41.915Z,69.40
2018-11-03T06:07:10.184Z,66.20
2018-11-03T06:09:38.412Z,66.40
2018-11-03T06:12:06.654Z,65.90
2018-11-03T06:14:34.865Z,66.00
2018-11-03T06:17:03.086Z,65.90
2018-11-03T06:19:31.330Z,66.00
2018-11-03T06:21:59.556Z,68.10
2018-11-03T06:24:27.771Z,68.30
2018-11-03T06:26:55.975Z,67.50
2018-11-03T06:29:24.243Z,77.10
2018-11-03T06:31:53.334Z,70.00
2018-11-03T06:34:21.648Z,69.80
2018-11-03T06:36:49.854Z,68.30
2018-11-03T06:39:18.139Z,68.40
2018-11-03T06:41:46.383Z,68.20
2018-11-03T06:44:14.586Z,70.20
2018-11-03T06:46:42.939Z,68.10
2018-11-03T06:49:11.102Z,70.00
2018-11-03T06:51:39.348Z,67.90
2018-11-03T06:54:07.588Z,70.60
2018-11-03T06:56:35.845Z,70.00
2018-11-03T06:59:04.048Z,70.00
2018-11-03T07:01:32.301Z,75.60
2018-11-03T07:04:00.516Z,71.60
2018-11-03T07:06:28.783Z,72.20
2018-11-03T07:08:57.046Z,75.00
2018-11-03T07:11:25.299Z,70.70
2018-11-03T07:13:54.241Z,71.30
2018-11-03T07:16:22.507Z,71.50
2018-11-03T07:18:50.758Z,72.50
2018-11-03T07:21:18.968Z,72.80
2018-11-03T07:23:47.222Z,73.50
2018-11-03T07:26:15.461Z,74.20
2018-11-03T07:28:43.669Z,73.40
2018-11-03T07:31:11.887Z,75.30
2018-11-03T07:33:40.871Z,70.40
2018-11-03T07:36:09.142Z,70.50
2018-11-03T07:38:37.347Z,72.50
2018-11-03T07:41:05.636Z,78.60
2018-11-03T07:43:33.824Z,73.30
2018-11-03T07:46:02.051Z,77.10
2018-11-03T07:48:30.344Z,74.20
2018-11-03T07:50:58.527Z,72.70
2018-11-03T07:53:26.749Z,72.50
2018-11-03T07:55:55.007Z,73.30
2018-11-03T07:58:23.262Z,72.10
2018-11-03T08:00:52.286Z,71.80
2018-11-03T08:03:20.541Z,71.80
2018-11-03T08:05:49.557Z,74.80
2018-11-03T08:08:17.774Z,75.20
2018-11-03T08:10:45.998Z,72.30
2018-11-03T08:13:14.256Z,72.60
2018-11-03T08:15:43.314Z,72.80
2018-11-03T08:18:12.209Z,72.40
2018-11-03T08:20:40.486Z,72.60
2018-11-03T08:23:09.465Z,75.00
2018-11-03T08:25:37.754Z,74.90
2018-11-03T08:28:05.987Z,75.40
2018-11-03T08:30:34.250Z,73.60
2018-11-03T08:33:02.492Z,74.10
2018-11-03T08:35:30.798Z,73.00
2018-11-03T08:37:58.973Z,73.10
2018-11-03T08:40:27.197Z,72.70
2018-11-03T08:42:55.404Z,73.90
2018-11-03T08:45:24.399Z,71.60
2018-11-03T08:47:53.379Z,71.70
2018-11-03T08:50:21.643Z,71.70
2018-11-03T08:52:49.896Z,71.50
2018-11-03T08:55:18.160Z,72.00
2018-11-03T08:57:46.366Z,71.70
2018-11-03T09:00:14.720Z,71.30
2018-11-03T09:02:42.808Z,70.80
2018-11-03T09:05:11.070Z,70.20
2018-11-03T09:07:39.278Z,69.20
2018-11-03T09:12:46.282Z,70.30
2018-11-03T09:15:14.566Z,70.30
2018-11-03T09:17:42.735Z,70.30
2018-11-03T09:20:10.953Z,70.00
2018-11-03T09:22:39.203Z,70.00
2018-11-03T09:25:07.407Z,69.40
2018-11-03T09:27:35.637Z,70.50
2018-11-03T09:30:04.177Z,70.50
2018-11-03T09:32:32.412Z,67.90
2018-11-03T09:35:00.635Z,69.80
2018-11-03T09:37:28.859Z,69.30
2018-11-03T09:39:58.720Z,68.80
2018-11-03T09:45:07.110Z,69.40
2018-11-03T09:47:35.228Z,68.40
2018-11-03T09:50:03.481Z,68.20
2018-11-03T09:52:32.455Z,69.10
2018-11-03T09:55:00.704Z,68.60
2018-11-03T09:57:28.934Z,68.10
2018-11-03T09:59:57.210Z,68.20
2018-11-03T10:02:26.213Z,68.10
2018-11-03T10:04:54.499Z,68.20
2018-11-03T10:07:22.755Z,67.50
2018-11-03T10:09:51.740Z,67.50
2018-11-03T10:12:20.757Z,67.30
2018-11-03T10:14:49.014Z,67.20
2018-11-03T10:17:17.300Z,67.50
2018-11-03T10:19:45.503Z,66.90
2018-11-03T10:22:13.782Z,67.10
2018-11-03T10:24:42.011Z,66.90
2018-11-03T10:27:10.233Z,66.00
2018-11-03T10:29:38.477Z,66.70
2018-11-03T10:32:07.515Z,67.50
2018-11-03T10:34:35.739Z,67.50
2018-11-03T10:37:04.013Z,66.60
2018-11-03T10:39:32.285Z,67.80
2018-11-03T10:42:00.505Z,66.10
2018-11-03T10:44:28.755Z,66.10
2018-11-03T10:46:57.804Z,66.50
2018-11-03T10:49:26.012Z,66.50
2018-11-03T10:51:54.264Z,66.00
2018-11-03T10:54:22.519Z,65.90
2018-11-03T10:56:50.803Z,64.60
2018-11-03T10:59:19.049Z,65.70
2018-11-03T11:05:00.085Z,66.30
2018-11-03T11:07:28.294Z,66.70
2018-11-03T11:09:57.322Z,67.20
2018-11-03T11:12:25.580Z,67.10
2018-11-03T11:14:54.623Z,66.40
2018-11-03T11:17:22.820Z,66.30
2018-11-03T11:19:51.035Z,65.60
2018-11-03T11:22:19.285Z,64.00
2018-11-03T11:24:47.515Z,64.60
2018-11-03T11:27:15.742Z,66.40
2018-11-03T11:29:43.992Z,64.70
2018-11-03T11:32:12.268Z,64.90
2018-11-03T11:34:40.506Z,65.00
2018-11-03T11:37:08.729Z,67.30
2018-11-03T11:39:36.994Z,67.70
2018-11-03T11:42:05.219Z,66.80
2018-11-03T11:44:33.508Z,65.90
2018-11-03T11:47:02.485Z,66.10
2018-11-03T11:49:31.484Z,64.60
2018-11-03T11:51:59.750Z,64.20
2018-11-03T11:54:28.736Z,64.50
2018-11-03T11:56:57.765Z,64.60
2018-11-03T11:59:26.020Z,64.50
2018-11-03T12:01:55.069Z,65.10
2018-11-03T12:04:23.331Z,65.00
2018-11-03T12:06:51.587Z,64.10
2018-11-03T12:09:19.834Z,62.30
2018-11-03T12:11:48.141Z,65.40
2018-11-03T12:14:16.352Z,62.50
2018-11-03T12:16:45.445Z,64.60
2018-11-03T12:19:13.670Z,64.70
2018-11-03T12:21:42.664Z,64.20
2018-11-03T12:24:11.696Z,64.20
2018-11-03T12:26:39.970Z,64.10
2018-11-03T12:29:08.188Z,63.10
2018-11-03T12:31:36.458Z,63.50
2018-11-03T12:34:04.708Z,63.10
2018-11-03T12:36:32.926Z,64.50
2018-11-03T12:39:01.189Z,64.30
2018-11-03T12:41:29.552Z,62.90
2018-11-03T12:43:57.684Z,63.00
2018-11-03T12:46:26.721Z,63.60
2018-11-03T12:48:54.951Z,63.50
2018-11-03T12:51:23.209Z,63.00
2018-11-03T12:53:51.464Z,63.60
2018-11-03T12:56:19.682Z,63.70
2018-11-03T12:58:47.948Z,63.60
2018-11-03T13:01:16.992Z,62.90
2018-11-03T13:03:45.188Z,62.40
2018-11-03T13:06:13.412Z,60.50
2018-11-03T13:08:41.721Z,60.80
2018-11-03T13:11:09.992Z,62.80
2018-11-03T13:13:38.316Z,61.90
2018-11-03T13:16:06.503Z,62.00
2018-11-03T13:18:35.496Z,62.50
2018-11-03T13:21:04.465Z,62.00
2018-11-03T13:23:32.738Z,62.00
2018-11-03T13:26:00.989Z,63.00
2018-11-03T13:28:29.266Z,62.20
2018-11-03T13:30:57.534Z,63.50
2018-11-03T13:33:25.767Z,60.30
2018-11-03T13:35:54.764Z,61.90
2018-11-03T13:38:23.059Z,61.70
2018-11-03T13:40:52.165Z,62.80
2018-11-03T13:43:20.395Z,62.70
2018-11-03T13:45:48.634Z,61.80
2018-11-03T13:48:16.931Z,62.10
2018-11-03T13:50:45.159Z,62.20
2018-11-03T13:53:14.193Z,63.20
2018-11-03T13:55:42.405Z,63.10
2018-11-03T13:58:10.708Z,63.20
2018-11-03T14:00:39.685Z,62.90
2018-11-03T14:03:08.709Z,62.10
2018-11-03T14:05:36.927Z,61.70
2018-11-03T14:08:05.230Z,62.40
2018-11-03T14:10:33.492Z,66.20
2018-11-03T14:13:01.722Z,66.50
2018-11-03T14:15:29.950Z,66.00
2018-11-03T14:17:58.195Z,65.50
2018-11-03T14:20:26.411Z,61.10
2018-11-03T14:22:54.699Z,62.40
2018-11-03T14:25:22.951Z,62.10
2018-11-03T14:27:51.225Z,59.50
2018-11-03T14:30:19.400Z,63.20
2018-11-03T14:32:47.653Z,61.90
2018-11-03T14:35:15.879Z,61.10
2018-11-03T14:37:44.932Z,58.70
2018-11-03T14:40:13.162Z,58.60
2018-11-03T14:42:42.157Z,60.40
2018-11-03T14:45:10.450Z,60.50
2018-11-03T14:47:39.465Z,61.60
2018-11-03T14:50:07.669Z,61.60
2018-11-03T14:52:35.962Z,62.00
2018-11-03T14:55:04.153Z,61.90
2018-11-03T14:57:33.145Z,61.80
2018-11-03T15:00:02.125Z,62.40
2018-11-03T15:02:31.186Z,62.60
2018-11-03T15:04:59.406Z,61.80
2018-11-03T15:07:28.440Z,62.80
2018-11-03T15:09:56.708Z,62.70
2018-11-03T15:12:24.926Z,61.50
2018-11-03T15:14:54.730Z,61.90
2018-11-03T15:17:22.913Z,61.70
2018-11-03T15:19:51.138Z,61.70
2018-11-03T15:22:19.478Z,61.60
2018-11-03T15:24:47.614Z,61.90
2018-11-03T15:27:15.869Z,61.80
2018-11-03T15:29:44.122Z,61.40
2018-11-03T15:32:12.387Z,61.60
2018-11-03T15:34:41.424Z,61.70
2018-11-03T15:37:09.680Z,61.60
2018-11-03T15:39:38.709Z,61.90
2018-11-03T15:42:06.976Z,61.90
2018-11-03T15:44:35.182Z,61.50
2018-11-03T15:47:03.420Z,61.20
2018-11-03T15:49:31.628Z,61.70
2018-11-03T15:51:59.869Z,61.70
2018-11-03T15:54:28.082Z,61.60
2018-11-03T15:56:56.314Z,60.90
2018-11-03T15:59:24.596Z,61.60
2018-11-03T16:01:53.611Z,61.70
2018-11-03T16:04:21.832Z,61.70
2018-11-03T16:06:50.108Z,61.50
2018-11-03T16:09:18.320Z,61.50
2018-11-03T16:11:46.570Z,61.60
2018-11-03T16:14:15.568Z,61.70
2018-11-03T16:16:44.562Z,62.00
2018-11-03T16:19:13.608Z,61.70
2018-11-03T16:21:41.831Z,61.70
2018-11-03T16:24:10.852Z,62.50
2018-11-03T16:26:39.841Z,62.10
2018-11-03T16:29:08.816Z,62.10
2018-11-03T16:31:37.820Z,62.10
2018-11-03T16:34:06.807Z,62.00
2018-11-03T16:36:35.837Z,61.90
2018-11-03T16:39:04.095Z,62.00
2018-11-03T16:41:33.075Z,62.30
2018-11-03T16:44:09.451Z,62.40
2018-11-03T16:46:38.462Z,63.00
2018-11-03T16:49:06.665Z,62.30
2018-11-03T16:51:34.967Z,63.20
2018-11-03T16:54:03.177Z,62.60
2018-11-03T16:56:32.177Z,62.70
2018-11-03T16:59:00.444Z,62.70
2018-11-03T17:01:29.463Z,62.90
2018-11-03T17:03:57.672Z,62.90
2018-11-03T17:06:25.894Z,63.10
2018-11-03T17:08:54.131Z,63.10
2018-11-03T17:11:22.385Z,62.60
2018-11-03T17:13:50.641Z,63.70
2018-11-03T17:16:18.895Z,63.60
2018-11-03T17:18:48.000Z,62.60
2018-11-03T17:21:16.207Z,62.70
2018-11-03T17:23:44.450Z,62.80
2018-11-03T17:26:13.430Z,62.50
2018-11-03T17:28:42.475Z,62.60
2018-11-03T17:31:10.743Z,62.60
2018-11-03T17:33:38.969Z,62.60
2018-11-03T17:36:07.177Z,62.90
2018-11-03T17:38:35.405Z,62.50
2018-11-03T17:41:03.632Z,62.50
2018-11-03T17:43:31.862Z,62.40
2018-11-03T17:46:00.124Z,62.70
2018-11-03T17:48:28.387Z,62.90
2018-11-03T17:50:56.650Z,62.90
2018-11-03T17:53:24.881Z,62.80
2018-11-03T17:55:53.872Z,62.60
2018-11-03T17:58:22.146Z,62.60
2018-11-03T18:00:50.449Z,62.90
2018-11-03T18:03:18.676Z,62.90
2018-11-03T18:05:46.876Z,63.30
2018-11-03T18:08:15.124Z,62.90
2018-11-03T18:10:43.408Z,62.90
2018-11-03T18:13:11.638Z,63.10
2018-11-03T18:15:40.608Z,62.90
2018-11-03T18:18:10.397Z,63.80
2018-11-03T18:20:38.678Z,63.90
2018-11-03T18:23:06.956Z,63.30
2018-11-03T18:25:35.971Z,63.50
2018-11-03T18:28:05.004Z,63.70
2018-11-03T18:30:33.268Z,63.70
2018-11-03T18:33:02.304Z,63.90
2018-11-03T18:35:30.506Z,63.90
2018-11-03T18:37:58.788Z,64.00
2018-11-03T18:40:26.979Z,64.00
2018-11-03T18:42:55.262Z,63.90
2018-11-03T18:45:24.542Z,64.20
2018-11-03T18:47:52.818Z,64.00
2018-11-03T18:50:21.059Z,63.80
2018-11-03T18:52:49.376Z,64.60
2018-11-03T18:55:17.558Z,63.90
2018-11-03T18:57:46.600Z,64.50
2018-11-03T19:00:14.811Z,64.60
2018-11-03T19:02:43.035Z,65.00
2018-11-03T19:05:11.304Z,66.70
2018-11-03T19:07:39.529Z,64.40
2018-11-03T19:10:07.751Z,63.90
2018-11-03T19:12:36.745Z,65.50
2018-11-03T19:15:05.020Z,65.50
2018-11-03T19:17:34.365Z,64.80
2018-11-03T19:20:03.667Z,64.70
2018-11-03T19:22:32.255Z,64.70
2018-11-03T19:25:00.834Z,65.30
2018-11-03T19:27:29.524Z,66.10
2018-11-03T19:29:58.215Z,65.40
2018-11-03T19:32:27.755Z,65.40
2018-11-03T19:34:56.523Z,65.30
2018-11-03T19:37:25.911Z,65.00
2018-11-03T19:39:54.493Z,65.10
2018-11-03T19:42:23.179Z,66.50
2018-11-03T19:44:51.765Z,65.80
2018-11-03T19:47:21.987Z,67.50
2018-11-03T19:49:50.674Z,67.90
2018-11-03T19:52:19.257Z,65.50
2018-11-03T19:54:47.972Z,65.30
2018-11-03T19:57:16.735Z,65.80
2018-11-03T19:59:44.965Z,66.00
2018-11-03T20:02:13.240Z,65.80
2018-11-03T20:04:42.226Z,65.30
2018-11-03T20:07:11.235Z,65.60
2018-11-03T20:09:39.519Z,65.60
2018-11-03T20:12:08.513Z,65.80
2018-11-03T20:14:36.793Z,65.90
2018-11-03T20:17:05.018Z,67.20
2018-11-03T20:19:33.294Z,66.00
2018-11-03T20:22:01.573Z,65.50
2018-11-03T20:24:29.828Z,68.70
2018-11-03T20:26:58.052Z,65.80
2018-11-03T20:29:27.093Z,66.20
2018-11-03T20:31:55.441Z,66.20
2018-11-03T20:34:23.631Z,66.60
2018-11-03T20:36:51.895Z,66.30
2018-11-03T20:39:20.869Z,66.30
2018-11-03T20:41:49.964Z,66.60
2018-11-03T20:44:18.203Z,66.70
2018-11-03T20:46:46.415Z,67.00
2018-11-03T20:49:14.687Z,67.00
2018-11-03T20:51:42.917Z,67.30
2018-11-03T20:54:11.147Z,67.10
2018-11-03T20:56:40.145Z,66.00
2018-11-03T20:59:09.185Z,66.70
2018-11-03T21:01:37.471Z,66.80
2018-11-03T21:04:06.407Z,66.40
2018-11-03T21:06:35.434Z,66.60
2018-11-03T21:09:03.666Z,66.60
2018-11-03T21:11:31.874Z,66.30
2018-11-03T21:14:00.146Z,66.50
2018-11-03T21:16:28.448Z,68.50
2018-11-03T21:18:56.652Z,71.80
2018-11-03T21:21:24.918Z,66.80
2018-11-03T21:23:53.250Z,66.70
2018-11-03T21:26:21.449Z,68.70
2018-11-03T21:28:49.737Z,68.60
2018-11-03T21:31:17.955Z,68.50
2018-11-03T21:33:46.185Z,67.20
2018-11-03T21:36:14.443Z,67.20
2018-11-03T21:38:43.568Z,68.80
2018-11-03T21:41:11.774Z,68.80
2018-11-03T21:43:40.012Z,70.10
2018-11-03T21:46:08.348Z,70.80
2018-11-03T21:48:36.554Z,70.40
2018-11-03T21:51:04.848Z,69.20
2018-11-03T21:53:33.057Z,68.30
2018-11-03T21:56:01.375Z,71.00
2018-11-03T21:58:29.604Z,69.00
2018-11-03T22:00:57.812Z,68.70
2018-11-03T22:03:26.798Z,76.30
2018-11-03T22:05:55.786Z,70.80
2018-11-03T22:08:24.016Z,70.70
2018-11-03T22:10:52.231Z,68.90
2018-11-03T22:13:20.523Z,69.90
2018-11-03T22:15:48.778Z,70.10
2018-11-03T22:18:16.981Z,69.70
2018-11-03T22:20:45.969Z,69.30
2018-11-03T22:23:14.242Z,69.30
2018-11-03T22:25:42.497Z,69.10
2018-11-03T22:28:10.762Z,69.20
2018-11-03T22:30:39.007Z,68.90
2018-11-03T22:33:07.235Z,72.10
2018-11-03T22:35:35.466Z,72.00
2018-11-03T22:38:03.703Z,69.00
2018-11-03T22:40:32.694Z,68.90
2018-11-03T22:43:00.912Z,69.10
2018-11-03T22:45:29.223Z,69.40
2018-11-03T22:47:57.453Z,69.10
2018-11-03T22:50:25.667Z,68.60
2018-11-03T22:52:53.905Z,73.60
2018-11-03T22:55:22.121Z,72.00
2018-11-03T22:57:50.397Z,69.30
2018-11-03T23:00:18.651Z,68.50
2018-11-03T23:02:46.862Z,69.00
2018-11-03T23:05:15.069Z,72.50
2018-11-03T23:07:44.123Z,69.20
2018-11-03T23:10:12.334Z,69.40
2018-11-03T23:12:41.405Z,70.30
2018-11-03T23:15:09.671Z,69.90
2018-11-03T23:17:37.944Z,72.30
2018-11-03T23:20:06.152Z,69.20
2018-11-03T23:22:35.164Z,71.00
2018-11-03T23:25:04.187Z,70.10
2018-11-03T23:27:32.467Z,70.20
2018-11-03T23:30:00.948Z,72.10
2018-11-03T23:32:29.703Z,75.90
2018-11-03T23:34:58.721Z,70.40
2018-11-03T23:37:26.944Z,70.60
2018-11-03T23:39:55.252Z,70.40
2018-11-03T23:42:24.293Z,70.20
2018-11-03T23:44:52.572Z,70.40
2018-11-03T23:47:21.532Z,73.30
2018-11-03T23:49:49.783Z,73.10
2018-11-03T23:52:18.012Z,73.70
2018-11-03T23:54:46.237Z,72.90
2018-11-03T23:57:14.477Z,72.00
2018-11-03T23:59:42.798Z,70.30
